Time;durP1;ratioP1;P1;durP2;ratioP2;P2;SDS_P1;SDS_P2;PMS_P1;PMS_P2;Temp;Humidity;BMP_temperature;BMP_pressure;BME280_temperature;BME280_humidity;BME280_pressure;Samples;Min_cycle;Max_cycle;Signal;HPM_P1;HPM_P2
2021/08/30 00:02:20;;;;;;;3.67;1.30;;;;;;;;;;5038280;28;20021;-66
2021/08/30 00:04:46;;;;;;;2.78;1.17;;;;;;;;;;5040324;28;20028;-66
2021/08/30 00:07:12;;;;;;;3.30;1.15;;;;;;;;;;5046614;28;20032;-66
2021/08/30 00:09:39;;;;;;;5.40;1.40;;;;;;;;;;5040499;28;20028;-66
2021/08/30 00:12:05;;;;;;;2.58;1.38;;;;;;;;;;5044644;28;20024;-66
2021/08/30 00:14:31;;;;;;;3.63;1.20;;;;;;;;;;5041520;28;20057;-66
2021/08/30 00:16:58;;;;;;;5.50;1.40;;;;;;;;;;5040809;28;20036;-66
2021/08/30 00:19:24;;;;;;;3.58;1.15;;;;;;;;;;5040690;28;20388;-66
2021/08/30 00:21:50;;;;;;;5.53;1.30;;;;;;;;;;5042438;28;20067;-66
2021/08/30 00:24:22;;;;;;;3.33;1.48;;;;;;;;;;5036250;28;20033;-66
2021/08/30 00:26:49;;;;;;;3.58;1.40;;;;;;;;;;5046399;28;20032;-66
2021/08/30 00:29:15;;;;;;;3.75;1.17;;;;;;;;;;5041631;28;20026;-66
2021/08/30 00:31:41;;;;;;;5.43;1.55;;;;;;;;;;5038978;28;20035;-67
2021/08/30 00:34:07;;;;;;;7.82;1.77;;;;;;;;;;5041163;28;20048;-66
2021/08/30 00:36:34;;;;;;;6.88;1.42;;;;;;;;;;5042429;28;20509;-67
2021/08/30 00:39:00;;;;;;;3.88;1.63;;;;;;;;;;5043247;28;20481;-66
2021/08/30 00:41:26;;;;;;;3.45;1.50;;;;;;;;;;5041805;28;20115;-66
2021/08/30 00:43:53;;;;;;;3.78;1.52;;;;;;;;;;5036768;28;20036;-67
2021/08/30 00:46:20;;;;;;;2.97;1.27;;;;;;;;;;5041259;28;20473;-66
2021/08/30 00:48:47;;;;;;;4.78;1.52;;;;;;;;;;5043112;28;20381;-66
2021/08/30 00:51:14;;;;;;;3.83;1.70;;;;;;;;;;5041385;28;20090;-66
2021/08/30 00:53:43;;;;;;;3.65;1.50;;;;;;;;;;5041760;28;20162;-66
2021/08/30 00:56:09;;;;;;;4.88;1.67;;;;;;;;;;5035060;28;20501;-66
2021/08/30 00:58:35;;;;;;;2.30;1.38;;;;;;;;;;5041584;28;20041;-69
2021/08/30 01:01:02;;;;;;;2.35;1.13;;;;;;;;;;5041195;28;20040;-66
2021/08/30 01:03:28;;;;;;;3.38;1.50;;;;;;;;;;5042664;28;20029;-66
2021/08/30 01:05:59;;;;;;;2.75;1.40;;;;;;;;;;5043079;28;20414;-68
2021/08/30 01:08:31;;;;;;;3.75;1.30;;;;;;;;;;5039067;28;20100;-66
2021/08/30 01:10:57;;;;;;;;;;;;;;;;;;5043720;28;20103;-68
2021/08/30 01:13:39;;;;;;;2.05;1.20;;;;;;;;;;5041734;28;19955;-66
2021/08/30 01:16:08;;;;;;;3.45;1.30;;;;;;;;;;5042066;28;20017;-66
2021/08/30 01:18:35;;;;;;;3.95;1.60;;;;;;;;;;5042403;28;20047;-65
2021/08/30 01:21:16;;;;;;;7.53;2.00;;;;;;;;;;5033093;28;20033;-65
2021/08/30 01:23:44;;;;;;;3.60;1.58;;;;;;;;;;5041831;28;20044;-65
2021/08/30 01:26:11;;;;;;;3.25;1.40;;;;;;;;;;5037847;28;20029;-65
2021/08/30 01:28:41;;;;;;;5.10;1.35;;;;;;;;;;5036980;28;20041;-65
2021/08/30 01:31:15;;;;;;;7.63;1.67;;;;;;;;;;5040057;28;20021;-65
2021/08/30 01:33:42;;;;;;;3.78;1.63;;;;;;;;;;5035548;28;20045;-66
2021/08/30 01:36:09;;;;;;;2.53;1.30;;;;;;;;;;5039466;28;20029;-65
2021/08/30 01:38:39;;;;;;;4.53;1.50;;;;;;;;;;5036683;28;20079;-66
2021/08/30 01:41:06;;;;;;;4.43;1.30;;;;;;;;;;5034018;28;20370;-66
2021/08/30 01:43:33;;;;;;;4.20;1.50;;;;;;;;;;5039215;28;20021;-65
2021/08/30 01:45:59;;;;;;;2.42;1.60;;;;;;;;;;5038369;28;20120;-65
2021/08/30 01:48:25;;;;;;;4.10;1.23;;;;;;;;;;5035203;28;20033;-65
2021/08/30 01:50:51;;;;;;;2.75;1.42;;;;;;;;;;5039382;28;20031;-66
2021/08/30 01:53:17;;;;;;;3.45;1.50;;;;;;;;;;5036732;28;20021;-66
2021/08/30 01:55:50;;;;;;;2.60;1.13;;;;;;;;;;5035298;28;20041;-66
2021/08/30 02:00:48;;;;;;;3.83;1.35;;;;;;;;;;5035821;28;20034;-65
2021/08/30 02:03:29;;;;;;;3.38;1.80;;;;;;;;;;5038082;28;20025;-66
2021/08/30 02:05:55;;;;;;;5.13;1.15;;;;;;;;;;5036855;28;20033;-68
2021/08/30 02:08:23;;;;;;;2.03;1.13;;;;;;;;;;5033430;28;20021;-65
2021/08/30 02:10:50;;;;;;;1.98;1.35;;;;;;;;;;5041546;28;20421;-65
2021/08/30 02:13:17;;;;;;;3.22;1.50;;;;;;;;;;5034178;28;20025;-66
2021/08/30 02:15:44;;;;;;;3.17;1.13;;;;;;;;;;5037461;28;20029;-65
2021/08/30 02:18:30;;;;;;;2.55;1.30;;;;;;;;;;5040993;28;20044;-66
2021/08/30 02:21:15;;;;;;;3.25;1.25;;;;;;;;;;5020509;28;20491;-66
2021/08/30 02:24:04;;;;;;;2.53;1.02;;;;;;;;;;5035180;28;20048;-67
2021/08/30 02:26:34;;;;;;;3.70;1.30;;;;;;;;;;5028490;28;20048;-66
2021/08/30 02:29:02;;;;;;;5.32;1.38;;;;;;;;;;5032004;28;20041;-66
2021/08/30 02:31:29;;;;;;;2.22;1.00;;;;;;;;;;5030382;28;20031;-66
2021/08/30 02:33:56;;;;;;;2.03;1.17;;;;;;;;;;5029848;28;20029;-66
2021/08/30 02:36:23;;;;;;;1.73;1.17;;;;;;;;;;5028309;28;20060;-66
2021/08/30 02:38:50;;;;;;;3.00;1.30;;;;;;;;;;5033715;28;20025;-66
2021/08/30 02:41:17;;;;;;;4.50;1.30;;;;;;;;;;5036464;28;20542;-66
2021/08/30 02:43:43;;;;;;;2.38;1.10;;;;;;;;;;5031165;28;20025;-66
2021/08/30 02:46:09;;;;;;;1.80;1.15;;;;;;;;;;5028322;28;20038;-66
2021/08/30 02:48:36;;;;;;;2.17;1.33;;;;;;;;;;5031186;28;20531;-66
2021/08/30 02:51:03;;;;;;;2.47;1.30;;;;;;;;;;5029675;28;20524;-66
2021/08/30 02:53:29;;;;;;;2.67;1.08;;;;;;;;;;5033805;28;20032;-66
2021/08/30 02:55:55;;;;;;;2.53;1.10;;;;;;;;;;5030567;28;20064;-66
2021/08/30 02:58:21;;;;;;;2.80;1.15;;;;;;;;;;5030581;28;20040;-66
2021/08/30 03:00:48;;;;;;;1.63;1.17;;;;;;;;;;5034305;28;20040;-66
2021/08/30 03:03:15;;;;;;;3.17;1.15;;;;;;;;;;5030679;28;20500;-66
2021/08/30 03:05:42;;;;;;;2.88;1.35;;;;;;;;;;5029301;28;20037;-66
2021/08/30 03:08:09;;;;;;;2.92;1.15;;;;;;;;;;5028250;28;20075;-66
2021/08/30 03:10:36;;;;;;;4.18;1.02;;;;;;;;;;5032894;28;20099;-66
2021/08/30 03:13:04;;;;;;;3.42;1.10;;;;;;;;;;5029742;28;20022;-66
2021/08/30 03:15:32;;;;;;;2.15;1.00;;;;;;;;;;5029454;28;20060;-66
2021/08/30 03:17:58;;;;;;;3.50;1.40;;;;;;;;;;5028445;28;20205;-66
2021/08/30 03:20:25;;;;;;;2.92;1.00;;;;;;;;;;5027866;28;20493;-66
2021/08/30 03:22:52;;;;;;;3.88;1.25;;;;;;;;;;5032542;28;20025;-65
2021/08/30 03:25:20;;;;;;;1.77;1.15;;;;;;;;;;5025530;28;20039;-66
2021/08/30 03:27:46;;;;;;;6.03;1.45;;;;;;;;;;5031869;28;20409;-66
2021/08/30 03:30:14;;;;;;;3.40;1.10;;;;;;;;;;5035260;28;20040;-66
2021/08/30 03:32:42;;;;;;;3.22;1.58;;;;;;;;;;5023582;28;20013;-65
2021/08/30 03:35:08;;;;;;;3.85;1.63;;;;;;;;;;5032645;28;20039;-66
2021/08/30 03:37:35;;;;;;;2.00;1.20;;;;;;;;;;5029437;28;20508;-66
2021/08/30 03:40:02;;;;;;;2.88;1.10;;;;;;;;;;5023465;28;20051;-66
2021/08/30 03:42:28;;;;;;;2.45;1.30;;;;;;;;;;5032664;28;20095;-66
2021/08/30 03:44:54;;;;;;;2.17;1.52;;;;;;;;;;5022082;28;20035;-66
2021/08/30 03:47:21;;;;;;;2.25;1.20;;;;;;;;;;5029654;28;20087;-66
2021/08/30 03:49:49;;;;;;;2.28;1.00;;;;;;;;;;5032509;28;20032;-66
2021/08/30 03:52:15;;;;;;;4.97;1.35;;;;;;;;;;5031399;28;20040;-65
2021/08/30 03:54:42;;;;;;;3.20;1.17;;;;;;;;;;5025612;28;20037;-65
2021/08/30 03:57:13;;;;;;;2.78;1.30;;;;;;;;;;5035447;28;20032;-66
2021/08/30 03:59:40;;;;;;;4.53;1.23;;;;;;;;;;5029396;28;20022;-66
2021/08/30 04:02:07;;;;;;;1.83;1.20;;;;;;;;;;5032521;28;20056;-66
2021/08/30 04:04:33;;;;;;;2.80;1.38;;;;;;;;;;5037423;28;20649;-66
2021/08/30 04:07:00;;;;;;;2.08;1.10;;;;;;;;;;5027365;28;20040;-66
2021/08/30 04:09:28;;;;;;;3.75;1.23;;;;;;;;;;5034195;28;20029;-66
2021/08/30 04:11:54;;;;;;;2.72;1.52;;;;;;;;;;5023959;28;20103;-66
2021/08/30 04:14:20;;;;;;;1.33;1.00;;;;;;;;;;5038628;28;20033;-66
2021/08/30 04:16:47;;;;;;;2.53;1.15;;;;;;;;;;5035484;28;20139;-66
2021/08/30 04:19:14;;;;;;;2.15;1.00;;;;;;;;;;5035678;28;20065;-66
2021/08/30 04:21:40;;;;;;;8.13;1.83;;;;;;;;;;5031073;28;20117;-66
2021/08/30 04:24:06;;;;;;;5.68;1.00;;;;;;;;;;5034599;28;20029;-66
2021/08/30 04:26:32;;;;;;;3.72;1.30;;;;;;;;;;5035506;28;20052;-66
2021/08/30 04:28:58;;;;;;;2.80;1.55;;;;;;;;;;5039961;28;20013;-66
2021/08/30 04:31:24;;;;;;;4.32;1.45;;;;;;;;;;5032333;28;20037;-66
2021/08/30 04:33:51;;;;;;;2.60;1.08;;;;;;;;;;5036321;28;20040;-66
2021/08/30 04:36:17;;;;;;;4.90;1.30;;;;;;;;;;5032639;28;20040;-66
2021/08/30 04:38:43;;;;;;;2.85;1.27;;;;;;;;;;5035880;28;20029;-66
2021/08/30 04:41:09;;;;;;;2.00;1.20;;;;;;;;;;5028037;28;20063;-66
2021/08/30 04:43:35;;;;;;;3.08;1.38;;;;;;;;;;5031374;28;20064;-65
2021/08/30 04:46:01;;;;;;;5.35;1.15;;;;;;;;;;5030953;28;20449;-67
2021/08/30 04:48:28;;;;;;;1.80;1.10;;;;;;;;;;5035639;28;20028;-66
2021/08/30 04:50:54;;;;;;;2.80;1.13;;;;;;;;;;5033888;28;20047;-66
2021/08/30 04:53:20;;;;;;;3.08;1.08;;;;;;;;;;5036382;28;20048;-66
2021/08/30 04:55:46;;;;;;;1.88;0.90;;;;;;;;;;5032099;28;20050;-66
2021/08/30 04:58:12;;;;;;;1.80;1.15;;;;;;;;;;5040073;28;20029;-66
2021/08/30 05:00:38;;;;;;;5.45;1.23;;;;;;;;;;5024490;28;20124;-69
2021/08/30 05:03:05;;;;;;;7.43;1.42;;;;;;;;;;5039199;28;20029;-69
2021/08/30 05:05:31;;;;;;;4.82;1.67;;;;;;;;;;5028877;28;20045;-69
2021/08/30 05:07:57;;;;;;;3.78;1.30;;;;;;;;;;5037580;28;20396;-67
2021/08/30 05:10:23;;;;;;;2.45;1.25;;;;;;;;;;5033808;28;20025;-66
2021/08/30 05:12:50;;;;;;;3.40;1.10;;;;;;;;;;5042241;28;20029;-69
2021/08/30 05:15:16;;;;;;;1.95;1.15;;;;;;;;;;5035760;28;20039;-66
2021/08/30 05:17:43;;;;;;;3.03;1.40;;;;;;;;;;5035368;28;20026;-67
2021/08/30 05:20:09;;;;;;;4.85;1.98;;;;;;;;;;5039127;28;20641;-67
2021/08/30 05:22:35;;;;;;;3.15;1.40;;;;;;;;;;5036442;28;20056;-68
2021/08/30 05:25:01;;;;;;;2.08;1.23;;;;;;;;;;5039470;28;20063;-67
2021/08/30 05:27:27;;;;;;;5.35;1.75;;;;;;;;;;5034167;28;20029;-67
2021/08/30 05:29:54;;;;;;;7.85;2.00;;;;;;;;;;5037496;28;20099;-66
2021/08/30 05:32:21;;;;;;;11.07;2.60;;;;;;;;;;5034299;28;20610;-66
2021/08/30 05:34:47;;;;;;;5.18;1.98;;;;;;;;;;5038241;28;20034;-66
2021/08/30 05:37:13;;;;;;;5.03;2.30;;;;;;;;;;5029559;28;20038;-66
2021/08/30 05:39:39;;;;;;;5.53;1.88;;;;;;;;;;5030790;28;20543;-66
2021/08/30 05:42:06;;;;;;;4.57;1.60;;;;;;;;;;5033447;28;20091;-66
2021/08/30 05:44:32;;;;;;;4.18;1.50;;;;;;;;;;5038123;28;20654;-69
2021/08/30 05:46:58;;;;;;;3.08;1.70;;;;;;;;;;5028540;28;20035;-68
2021/08/30 05:49:24;;;;;;;4.70;2.10;;;;;;;;;;5020795;28;20024;-67
2021/08/30 05:51:50;;;;;;;6.15;2.45;;;;;;;;;;5022410;28;20543;-67
2021/08/30 05:54:16;;;;;;;5.55;2.40;;;;;;;;;;5022480;28;20025;-67
2021/08/30 05:56:43;;;;;;;5.70;3.15;;;;;;;;;;5025863;28;20059;-67
2021/08/30 05:59:09;;;;;;;5.30;2.67;;;;;;;;;;5031009;28;20032;-67
2021/08/30 06:01:36;;;;;;;3.97;2.00;;;;;;;;;;5029934;28;20036;-67
2021/08/30 06:04:03;;;;;;;3.50;2.00;;;;;;;;;;5027648;28;20071;-67
2021/08/30 06:06:29;;;;;;;4.90;2.85;;;;;;;;;;5029623;28;20424;-71
2021/08/30 06:08:55;;;;;;;9.40;3.92;;;;;;;;;;5022023;28;20063;-75
2021/08/30 06:11:22;;;;;;;10.93;3.90;;;;;;;;;;5022582;28;20048;-67
2021/08/30 06:13:48;;;;;;;7.13;3.75;;;;;;;;;;5028286;28;20398;-69
2021/08/30 06:16:14;;;;;;;12.82;3.90;;;;;;;;;;5026281;28;20030;-67
2021/08/30 06:18:40;;;;;;;10.40;4.22;;;;;;;;;;5025955;28;20052;-69
2021/08/30 06:21:06;;;;;;;14.10;4.15;;;;;;;;;;5029033;28;20390;-68
2021/08/30 06:23:32;;;;;;;10.50;4.07;;;;;;;;;;5022332;28;20165;-69
2021/08/30 06:26:00;;;;;;;12.18;3.70;;;;;;;;;;5021329;28;20021;-69
2021/08/30 06:28:29;;;;;;;12.95;4.55;;;;;;;;;;5022129;28;20021;-69
2021/08/30 06:30:55;;;;;;;10.70;3.50;;;;;;;;;;5020386;28;20112;-70
2021/08/30 06:33:21;;;;;;;5.75;2.78;;;;;;;;;;5021919;28;20032;-69
2021/08/30 06:35:48;;;;;;;5.53;2.83;;;;;;;;;;5021362;28;20104;-70
2021/08/30 06:38:15;;;;;;;12.52;3.22;;;;;;;;;;5025083;28;20564;-69
2021/08/30 06:40:41;;;;;;;10.65;3.65;;;;;;;;;;5031776;28;20069;-69
2021/08/30 06:43:07;;;;;;;2.47;1.30;;;;;;;;;;5019971;28;20031;-68
2021/08/30 06:45:34;;;;;;;4.05;1.55;;;;;;;;;;5030202;28;20021;-69
2021/08/30 06:48:01;;;;;;;2.17;1.25;;;;;;;;;;5032028;28;20193;-70
2021/08/30 06:50:27;;;;;;;13.75;2.42;;;;;;;;;;5035421;28;20021;-69
2021/08/30 06:52:54;;;;;;;4.57;1.30;;;;;;;;;;5032755;28;20017;-68
2021/08/30 06:55:20;;;;;;;3.75;1.45;;;;;;;;;;5032577;28;20060;-68
2021/08/30 06:57:47;;;;;;;1.60;1.05;;;;;;;;;;5038820;28;20017;-69
2021/08/30 07:00:17;;;;;;;1.77;1.10;;;;;;;;;;5032224;28;20561;-68
2021/08/30 07:02:43;;;;;;;2.55;0.98;;;;;;;;;;5036049;28;20052;-69
2021/08/30 07:05:09;;;;;;;2.80;0.90;;;;;;;;;;5035766;28;20028;-68
2021/08/30 07:07:35;;;;;;;2.30;1.17;;;;;;;;;;5035691;28;20033;-68
2021/08/30 07:10:01;;;;;;;4.95;1.40;;;;;;;;;;5038040;28;20021;-68
2021/08/30 07:12:27;;;;;;;2.33;1.38;;;;;;;;;;5032652;28;20229;-68
2021/08/30 07:14:54;;;;;;;3.42;1.33;;;;;;;;;;5037460;28;20473;-68
2021/08/30 07:17:20;;;;;;;3.05;1.55;;;;;;;;;;5034145;28;20033;-68
2021/08/30 07:19:46;;;;;;;2.40;1.23;;;;;;;;;;5039708;28;20021;-68
2021/08/30 07:22:13;;;;;;;3.75;1.60;;;;;;;;;;5037214;28;20040;-68
2021/08/30 07:24:40;;;;;;;2.78;1.70;;;;;;;;;;5034599;28;20029;-68
2021/08/30 07:27:06;;;;;;;2.90;1.60;;;;;;;;;;5039389;28;20029;-68
2021/08/30 07:29:32;;;;;;;2.63;1.67;;;;;;;;;;5039114;28;21756;-68
2021/08/30 07:31:59;;;;;;;3.40;1.40;;;;;;;;;;5040294;28;20029;-68
2021/08/30 07:34:25;;;;;;;4.07;1.60;;;;;;;;;;5041593;28;20410;-68
2021/08/30 07:36:55;;;;;;;2.95;1.65;;;;;;;;;;5043941;28;20424;-68
2021/08/30 07:39:22;;;;;;;3.55;1.42;;;;;;;;;;5040918;28;20025;-68
2021/08/30 07:41:48;;;;;;;3.28;1.63;;;;;;;;;;5042850;28;20041;-68
2021/08/30 07:44:14;;;;;;;2.33;1.48;;;;;;;;;;5043933;28;20381;-68
2021/08/30 07:46:41;;;;;;;6.32;1.35;;;;;;;;;;5043682;28;20103;-68
2021/08/30 07:49:07;;;;;;;3.25;1.50;;;;;;;;;;5043863;28;20179;-68
2021/08/30 07:51:34;;;;;;;4.55;1.40;;;;;;;;;;5042292;28;20037;-69
2021/08/30 07:54:00;;;;;;;4.15;1.70;;;;;;;;;;5042658;28;20023;-68
2021/08/30 07:56:26;;;;;;;7.70;1.67;;;;;;;;;;5042693;28;20037;-69
2021/08/30 07:58:53;;;;;;;4.70;1.30;;;;;;;;;;5043275;28;20025;-69
2021/08/30 08:01:19;;;;;;;4.57;2.45;;;;;;;;;;5042505;28;20500;-68
2021/08/30 08:03:46;;;;;;;12.10;3.35;;;;;;;;;;5043923;28;20017;-69
2021/08/30 08:06:12;;;;;;;2.85;1.30;;;;;;;;;;5042100;28;20072;-68
2021/08/30 08:08:38;;;;;;;4.50;1.38;;;;;;;;;;5043544;28;20108;-68
2021/08/30 08:11:09;;;;;;;3.30;1.70;;;;;;;;;;5042826;28;20021;-68
2021/08/30 08:13:35;;;;;;;8.93;2.72;;;;;;;;;;5041494;28;20013;-69
2021/08/30 08:16:01;;;;;;;5.13;1.67;;;;;;;;;;5038539;28;20075;-68
2021/08/30 08:18:27;;;;;;;5.95;3.60;;;;;;;;;;5043234;28;20021;-68
2021/08/30 08:20:53;;;;;;;4.82;1.73;;;;;;;;;;5043014;28;20082;-68
2021/08/30 08:23:20;;;;;;;3.30;1.30;;;;;;;;;;5040941;28;20013;-68
2021/08/30 08:25:46;;;;;;;1.48;1.08;;;;;;;;;;5042200;28;20032;-68
2021/08/30 08:28:12;;;;;;;3.45;1.35;;;;;;;;;;5042783;28;20492;-68
2021/08/30 08:30:38;;;;;;;3.17;1.52;;;;;;;;;;5042929;28;20057;-68
2021/08/30 08:33:04;;;;;;;7.43;1.75;;;;;;;;;;5042932;28;20013;-68
2021/08/30 08:35:31;;;;;;;2.83;1.55;;;;;;;;;;5041850;28;20024;-68
2021/08/30 08:37:57;;;;;;;2.13;1.25;;;;;;;;;;5041246;28;20477;-68
2021/08/30 08:40:23;;;;;;;5.38;1.63;;;;;;;;;;5042451;28;20094;-69
2021/08/30 08:42:49;;;;;;;4.40;1.65;;;;;;;;;;5042646;28;20469;-68
2021/08/30 08:45:17;;;;;;;5.10;1.50;;;;;;;;;;5042390;28;20029;-68
2021/08/30 08:47:43;;;;;;;4.30;1.20;;;;;;;;;;5041015;28;20059;-68
2021/08/30 08:50:11;;;;;;;2.42;1.40;;;;;;;;;;5041939;28;20507;-69
2021/08/30 08:52:40;;;;;;;2.75;1.38;;;;;;;;;;5042478;28;20032;-68
2021/08/30 08:55:06;;;;;;;2.80;1.17;;;;;;;;;;5042472;28;20484;-69
2021/08/30 08:57:32;;;;;;;2.85;1.42;;;;;;;;;;5041032;28;20021;-68
2021/08/30 08:59:59;;;;;;;3.10;1.33;;;;;;;;;;5042694;28;20078;-69
2021/08/30 09:02:29;;;;;;;2.45;1.20;;;;;;;;;;5042353;28;20057;-68
2021/08/30 09:04:57;;;;;;;5.00;1.40;;;;;;;;;;5042466;28;20031;-68
2021/08/30 09:07:42;;;;;;;2.65;1.10;;;;;;;;;;5042021;28;20028;-69
2021/08/30 09:10:17;;;;;;;4.80;1.90;;;;;;;;;;5041121;28;20484;-69
2021/08/30 09:12:43;;;;;;;2.65;1.42;;;;;;;;;;5040437;28;20113;-68
2021/08/30 09:15:11;;;;;;;3.35;1.58;;;;;;;;;;5042523;28;20056;-69
2021/08/30 09:17:40;;;;;;;2.35;1.48;;;;;;;;;;5042233;28;20045;-68
2021/08/30 09:20:06;;;;;;;4.90;1.75;;;;;;;;;;5040988;28;20025;-68
2021/08/30 09:22:34;;;;;;;5.88;1.85;;;;;;;;;;5037854;28;20693;-69
2021/08/30 09:25:08;;;;;;;2.88;1.48;;;;;;;;;;5037532;28;20024;-69
2021/08/30 09:27:35;;;;;;;2.58;1.60;;;;;;;;;;5037445;28;20495;-68
2021/08/30 09:30:11;;;;;;;4.20;1.50;;;;;;;;;;5031218;28;20025;-68
2021/08/30 09:32:38;;;;;;;3.70;1.50;;;;;;;;;;5036205;28;20374;-69
2021/08/30 09:35:05;;;;;;;2.55;1.02;;;;;;;;;;5026558;28;20089;-68
2021/08/30 09:37:35;;;;;;;2.00;1.20;;;;;;;;;;5029397;28;20013;-68
2021/08/30 09:40:02;;;;;;;3.13;1.40;;;;;;;;;;5035736;28;20903;-68
2021/08/30 09:42:29;;;;;;;3.17;1.50;;;;;;;;;;5022693;28;20048;-68
2021/08/30 09:44:56;;;;;;;2.38;1.05;;;;;;;;;;5020629;28;20021;-67
2021/08/30 09:47:22;;;;;;;5.13;1.42;;;;;;;;;;5021976;28;20044;-67
2021/08/30 09:49:49;;;;;;;1.98;1.05;;;;;;;;;;5021549;28;20287;-67
2021/08/30 09:52:15;;;;;;;2.78;1.20;;;;;;;;;;5024552;28;20116;-67
2021/08/30 09:54:41;;;;;;;2.42;1.08;;;;;;;;;;5038295;28;20529;-67
2021/08/30 09:57:08;;;;;;;2.50;1.35;;;;;;;;;;5038375;28;20206;-67
2021/08/30 09:59:34;;;;;;;4.88;1.38;;;;;;;;;;5040282;28;20037;-68
2021/08/30 10:02:01;;;;;;;5.60;1.40;;;;;;;;;;5029046;28;20091;-68
2021/08/30 10:04:28;;;;;;;2.75;1.20;;;;;;;;;;5027079;28;20022;-68
2021/08/30 10:06:56;;;;;;;3.90;1.33;;;;;;;;;;5029091;28;20049;-67
2021/08/30 10:09:22;;;;;;;1.67;1.02;;;;;;;;;;5033608;28;20047;-67
2021/08/30 10:11:54;;;;;;;3.42;1.10;;;;;;;;;;5041203;28;20021;-67
2021/08/30 10:14:20;;;;;;;;;;;;;;;;;;5038792;28;20025;-67
2021/08/30 10:16:46;;;;;;;4.13;1.20;;;;;;;;;;5042110;28;19908;-67
2021/08/30 10:19:13;;;;;;;2.00;1.30;;;;;;;;;;5037156;28;20112;-68
2021/08/30 10:21:44;;;;;;;2.33;1.15;;;;;;;;;;5036389;28;20060;-68
2021/08/30 10:24:14;;;;;;;2.30;1.30;;;;;;;;;;5033843;28;20116;-68
2021/08/30 10:26:41;;;;;;;3.90;1.10;;;;;;;;;;5027935;28;20036;-68
2021/08/30 10:29:08;;;;;;;3.33;1.35;;;;;;;;;;5034791;28;20033;-67
2021/08/30 10:31:35;;;;;;;1.90;1.10;;;;;;;;;;5036230;28;20048;-67
2021/08/30 10:34:01;;;;;;;4.28;1.10;;;;;;;;;;5028422;28;20425;-68
2021/08/30 10:36:29;;;;;;;3.28;1.20;;;;;;;;;;5033992;28;20029;-68
2021/08/30 10:38:59;;;;;;;2.67;1.35;;;;;;;;;;5036793;28;20074;-68
2021/08/30 10:41:36;;;;;;;2.90;1.08;;;;;;;;;;5035102;28;20136;-68
2021/08/30 10:44:12;;;;;;;1.92;1.10;;;;;;;;;;5030112;28;20018;-68
2021/08/30 10:46:39;;;;;;;2.13;1.15;;;;;;;;;;5021801;28;20151;-67
2021/08/30 10:49:09;;;;;;;2.60;1.08;;;;;;;;;;5038703;28;20021;-68
2021/08/30 10:51:38;;;;;;;1.73;1.00;;;;;;;;;;5040258;28;20380;-68
2021/08/30 10:54:15;;;;;;;1.80;1.20;;;;;;;;;;5040550;28;20021;-67
2021/08/30 10:56:42;;;;;;;1.73;1.00;;;;;;;;;;5036367;28;20835;-68
2021/08/30 10:59:10;;;;;;;1.60;1.00;;;;;;;;;;5039595;28;20021;-68
2021/08/30 11:01:39;;;;;;;2.17;1.08;;;;;;;;;;5040369;28;20040;-68
2021/08/30 11:04:06;;;;;;;2.25;1.23;;;;;;;;;;5032104;28;20079;-68
2021/08/30 11:06:32;;;;;;;1.77;1.02;;;;;;;;;;5028611;28;20029;-68
2021/08/30 11:08:59;;;;;;;3.50;1.10;;;;;;;;;;5030008;28;20018;-68
2021/08/30 11:11:28;;;;;;;1.35;0.77;;;;;;;;;;5030776;28;20508;-68
2021/08/30 11:14:09;;;;;;;2.38;1.00;;;;;;;;;;5033865;28;20048;-68
2021/08/30 11:16:35;;;;;;;4.45;1.08;;;;;;;;;;5038020;28;20036;-68
2021/08/30 11:19:05;;;;;;;2.58;1.10;;;;;;;;;;5034331;28;20037;-68
2021/08/30 11:21:46;;;;;;;1.58;0.95;;;;;;;;;;5029980;28;20120;-68
2021/08/30 11:24:35;;;;;;;2.13;0.90;;;;;;;;;;5036884;28;20044;-69
2021/08/30 11:27:09;;;;;;;1.30;0.88;;;;;;;;;;5037201;28;20262;-69
2021/08/30 11:29:41;;;;;;;1.17;0.82;;;;;;;;;;5028973;28;20036;-69
2021/08/30 11:32:07;;;;;;;2.88;0.98;;;;;;;;;;5038926;28;20459;-69
2021/08/30 11:34:36;;;;;;;2.30;1.00;;;;;;;;;;5032946;28;20616;-68
2021/08/30 11:37:03;;;;;;;2.40;1.05;;;;;;;;;;5030477;28;20030;-69
2021/08/30 11:39:30;;;;;;;1.70;0.90;;;;;;;;;;5038611;28;20017;-68
2021/08/30 11:41:58;;;;;;;2.30;0.93;;;;;;;;;;5022653;28;20044;-70
2021/08/30 11:44:24;;;;;;;1.83;0.90;;;;;;;;;;5025379;28;20370;-69
2021/08/30 11:46:54;;;;;;;2.60;1.00;;;;;;;;;;5034065;28;20112;-70
2021/08/30 11:49:21;;;;;;;2.00;1.10;;;;;;;;;;5028663;28;20091;-69
2021/08/30 11:51:47;;;;;;;2.63;1.20;;;;;;;;;;5020526;28;20025;-69
2021/08/30 11:54:18;;;;;;;2.67;0.90;;;;;;;;;;5026863;28;20381;-69
2021/08/30 11:56:58;;;;;;;2.30;1.25;;;;;;;;;;5025556;28;20092;-69
2021/08/30 11:59:28;;;;;;;1.75;1.17;;;;;;;;;;5027458;28;20040;-69
2021/08/30 12:01:54;;;;;;;1.05;0.88;;;;;;;;;;5035225;28;20047;-71
2021/08/30 12:04:21;;;;;;;4.80;1.30;;;;;;;;;;5037034;28;20040;-70
2021/08/30 12:06:50;;;;;;;2.53;1.15;;;;;;;;;;5035729;28;20381;-70
2021/08/30 12:09:17;;;;;;;4.30;1.42;;;;;;;;;;5037148;28;20457;-70
2021/08/30 12:11:47;;;;;;;1.20;0.90;;;;;;;;;;5037845;28;20115;-70
2021/08/30 12:14:13;;;;;;;4.22;1.20;;;;;;;;;;5033792;28;20029;-70
2021/08/30 12:16:42;;;;;;;3.83;1.50;;;;;;;;;;5033620;28;20064;-70
2021/08/30 12:19:09;;;;;;;2.45;1.20;;;;;;;;;;5035944;28;20080;-69
2021/08/30 12:21:37;;;;;;;1.30;0.98;;;;;;;;;;5035984;28;20052;-70
2021/08/30 12:24:03;;;;;;;2.20;1.05;;;;;;;;;;5028170;28;20116;-71
2021/08/30 12:26:29;;;;;;;2.60;1.00;;;;;;;;;;5029647;28;20051;-70
2021/08/30 12:28:59;;;;;;;3.13;1.00;;;;;;;;;;5035439;28;20029;-69
2021/08/30 12:31:29;;;;;;;2.08;1.10;;;;;;;;;;5025623;28;20033;-69
2021/08/30 12:34:05;;;;;;;1.77;0.90;;;;;;;;;;5023189;28;20121;-68
2021/08/30 12:36:31;;;;;;;1.60;0.90;;;;;;;;;;5035831;28;20412;-68
2021/08/30 12:38:58;;;;;;;3.40;1.13;;;;;;;;;;5027245;28;20095;-68
2021/08/30 12:41:24;;;;;;;2.47;0.90;;;;;;;;;;5023219;28;20037;-68
2021/08/30 12:43:50;;;;;;;3.13;1.13;;;;;;;;;;5028653;28;20021;-69
2021/08/30 12:46:16;;;;;;;2.40;1.10;;;;;;;;;;5023459;28;20041;-69
2021/08/30 12:48:43;;;;;;;2.97;1.00;;;;;;;;;;5027701;28;20056;-69
2021/08/30 12:51:10;;;;;;;3.10;1.10;;;;;;;;;;5025044;28;20065;-69
2021/08/30 12:53:37;;;;;;;2.78;0.90;;;;;;;;;;5023278;28;20080;-69
2021/08/30 12:56:03;;;;;;;1.35;0.90;;;;;;;;;;5023381;28;20053;-69
2021/08/30 12:58:29;;;;;;;2.10;0.95;;;;;;;;;;5023673;28;20091;-69
2021/08/30 13:00:55;;;;;;;1.65;1.02;;;;;;;;;;5027198;28;20036;-69
2021/08/30 13:03:22;;;;;;;2.95;1.27;;;;;;;;;;5022348;28;20032;-69
2021/08/30 13:05:48;;;;;;;3.40;1.10;;;;;;;;;;5021691;28;20025;-69
2021/08/30 13:08:15;;;;;;;1.70;1.00;;;;;;;;;;5023284;28;20283;-69
2021/08/30 13:10:44;;;;;;;4.18;1.20;;;;;;;;;;5021361;28;20288;-69
2021/08/30 13:13:11;;;;;;;3.50;1.00;;;;;;;;;;5029023;28;20035;-69
2021/08/30 13:15:39;;;;;;;1.60;0.90;;;;;;;;;;5034601;28;20319;-69
2021/08/30 13:18:05;;;;;;;2.50;1.10;;;;;;;;;;5031096;28;20135;-69
2021/08/30 13:20:32;;;;;;;1.80;0.90;;;;;;;;;;5037031;28;20036;-69
2021/08/30 13:22:58;;;;;;;3.00;1.08;;;;;;;;;;5034614;28;20190;-69
2021/08/30 13:25:25;;;;;;;2.17;1.10;;;;;;;;;;5029077;28;20025;-69
2021/08/30 13:27:53;;;;;;;2.30;1.00;;;;;;;;;;5038163;28;20180;-69
2021/08/30 13:30:21;;;;;;;1.00;0.80;;;;;;;;;;5038288;28;20596;-69
2021/08/30 13:32:47;;;;;;;1.45;1.00;;;;;;;;;;5026938;28;20055;-69
2021/08/30 13:35:14;;;;;;;1.35;0.85;;;;;;;;;;5040077;28;20028;-69
2021/08/30 13:37:41;;;;;;;1.17;0.90;;;;;;;;;;5028262;28;20493;-69
2021/08/30 13:40:07;;;;;;;1.70;1.30;;;;;;;;;;5029204;28;20035;-69
2021/08/30 13:42:33;;;;;;;1.75;0.95;;;;;;;;;;5022372;28;20025;-69
2021/08/30 13:44:59;;;;;;;1.95;1.20;;;;;;;;;;5035385;28;20032;-69
2021/08/30 13:47:25;;;;;;;3.90;1.17;;;;;;;;;;5022541;28;20243;-69
2021/08/30 13:49:55;;;;;;;1.50;1.00;;;;;;;;;;5020264;28;20043;-69
2021/08/30 13:52:21;;;;;;;1.95;1.00;;;;;;;;;;5025043;28;20027;-69
2021/08/30 13:54:47;;;;;;;1.92;1.10;;;;;;;;;;5022402;28;20120;-69
2021/08/30 13:57:13;;;;;;;1.33;0.98;;;;;;;;;;5030161;28;20029;-69
2021/08/30 13:59:40;;;;;;;2.08;0.90;;;;;;;;;;5020347;28;20029;-69
2021/08/30 14:02:07;;;;;;;1.33;1.00;;;;;;;;;;5029348;28;20653;-69
2021/08/30 14:04:33;;;;;;;2.30;1.13;;;;;;;;;;5023890;28;20551;-69
2021/08/30 14:07:00;;;;;;;1.45;0.90;;;;;;;;;;5023964;28;20037;-69
2021/08/30 14:09:26;;;;;;;3.53;1.30;;;;;;;;;;5022458;28;20312;-69
2021/08/30 14:11:52;;;;;;;2.20;0.90;;;;;;;;;;5021636;28;20035;-69
2021/08/30 14:14:18;;;;;;;1.70;0.98;;;;;;;;;;5021287;28;20029;-69
2021/08/30 14:16:44;;;;;;;1.45;0.93;;;;;;;;;;5027676;28;20516;-69
2021/08/30 14:19:10;;;;;;;4.82;1.27;;;;;;;;;;5021898;28;20067;-68
2021/08/30 14:21:37;;;;;;;1.55;1.08;;;;;;;;;;5021070;28;20037;-68
2021/08/30 14:24:04;;;;;;;5.22;1.40;;;;;;;;;;5023811;28;20033;-68
2021/08/30 14:26:30;;;;;;;4.53;1.23;;;;;;;;;;5020108;28;20497;-68
2021/08/30 14:28:56;;;;;;;2.35;1.00;;;;;;;;;;5020096;28;20037;-68
2021/08/30 14:31:22;;;;;;;1.63;1.00;;;;;;;;;;5019705;28;20064;-68
2021/08/30 14:33:49;;;;;;;1.35;1.00;;;;;;;;;;5018179;28;20397;-68
2021/08/30 14:36:15;;;;;;;1.15;0.80;;;;;;;;;;5019591;28;20025;-68
2021/08/30 14:38:41;;;;;;;1.73;1.08;;;;;;;;;;5026568;28;20039;-68
2021/08/30 14:41:07;;;;;;;3.60;1.35;;;;;;;;;;5020391;28;20037;-68
2021/08/30 14:43:33;;;;;;;2.25;0.88;;;;;;;;;;5017378;28;20163;-68
2021/08/30 14:46:00;;;;;;;3.88;0.90;;;;;;;;;;5019402;28;20583;-68
2021/08/30 14:48:26;;;;;;;4.97;1.20;;;;;;;;;;5020767;28;20022;-68